Time;durP1;ratioP1;P1;durP2;ratioP2;P2;SDS_P1;SDS_P2;PMS_P1;PMS_P2;Temp;Humidity;BMP_temperature;BMP_pressure;BME280_temperature;BME280_humidity;BME280_pressure;Samples;Min_cycle;Max_cycle;Signal;HPM_P1;HPM_P2
2022/09/30 00:01:31;;;;;;;14.52;4.50;;;8.40;99.90;;;;;;6042490;23;20350;-89
2022/09/30 00:03:58;;;;;;;10.63;4.57;;;8.40;99.90;;;;;;6042712;23;20498;-89
2022/09/30 00:06:25;;;;;;;16.05;4.38;;;8.40;99.90;;;;;;6042006;23;20011;-88
2022/09/30 00:08:52;;;;;;;11.68;4.50;;;8.40;99.90;;;;;;6042184;23;20013;-90
2022/09/30 00:11:24;;;;;;;14.52;4.75;;;8.40;99.90;;;;;;6041707;23;20070;-90
2022/09/30 00:13:52;;;;;;;12.85;4.45;;;8.50;99.90;;;;;;6042403;23;20003;-89
2022/09/30 00:16:22;;;;;;;10.82;4.20;;;8.40;99.90;;;;;;6042077;23;20017;-90
2022/09/30 00:18:48;;;;;;;14.57;4.40;;;8.50;99.90;;;;;;6042063;23;20030;-89
2022/09/30 00:21:16;;;;;;;12.93;5.28;;;8.40;99.90;;;;;;6067503;23;20040;-89
2022/09/30 00:23:43;;;;;;;11.80;5.07;;;8.30;99.90;;;;;;6042366;23;20003;-88
2022/09/30 00:26:14;;;;;;;13.98;5.43;;;8.20;99.90;;;;;;6067468;23;20007;-88
2022/09/30 00:28:39;;;;;;;;;;;8.10;99.90;;;;;;6042469;23;20002;-89
2022/09/30 00:31:08;;;;;;;14.48;4.90;;;8.10;99.90;;;;;;6042769;23;19902;-89
2022/09/30 00:33:34;;;;;;;20.75;6.75;;;8.10;99.90;;;;;;6042618;23;20005;-89
2022/09/30 00:36:00;;;;;;;9.30;4.60;;;8.10;99.90;;;;;;6042274;23;20038;-89
2022/09/30 00:38:26;;;;;;;13.70;5.22;;;8.10;99.90;;;;;;6042388;23;19999;-89
2022/09/30 00:40:52;;;;;;;12.07;5.35;;;8.10;99.90;;;;;;6067644;23;20039;-89
2022/09/30 00:43:39;;;;;;;13.38;5.13;;;8.00;99.90;;;;;;6042656;23;20007;-90
2022/09/30 00:46:07;;;;;;;17.23;6.13;;;8.00;99.90;;;;;;6042304;23;20034;-88
2022/09/30 00:48:37;;;;;;;13.15;5.20;;;8.00;99.90;;;;;;6042335;23;20046;-89
2022/09/30 00:51:06;;;;;;;16.90;6.32;;;7.90;99.90;;;;;;6067587;23;20018;-89
2022/09/30 00:53:54;;;;;;;24.30;6.25;;;7.80;99.90;;;;;;6041875;23;20015;-88
2022/09/30 00:56:25;;;;;;;12.30;5.75;;;7.80;99.90;;;;;;6042083;23;20017;-90
2022/09/30 00:58:53;;;;;;;21.35;6.82;;;7.80;99.90;;;;;;6067238;23;20003;-89
2022/09/30 01:01:21;;;;;;;24.48;7.32;;;7.80;99.90;;;;;;6041913;23;20014;-89
2022/09/30 01:03:53;;;;;;;30.52;7.13;;;7.70;99.90;;;;;;6041937;23;20416;-89
2022/09/30 01:06:21;;;;;;;29.73;9.00;;;7.70;99.90;;;;;;6042855;23;20026;-89
2022/09/30 01:08:47;;;;;;;27.50;6.78;;;7.70;99.90;;;;;;6043750;23;20046;-90
2022/09/30 01:11:13;;;;;;;33.40;7.93;;;7.70;99.90;;;;;;6069374;23;20502;-89
2022/09/30 01:13:41;;;;;;;24.30;7.88;;;7.70;99.90;;;;;;6044080;23;20086;-89
2022/09/30 01:16:26;;;;;;;31.27;7.55;;;7.70;99.90;;;;;;6045343;23;20041;-88
2022/09/30 01:19:01;;;;;;;29.30;9.25;;;7.80;99.90;;;;;;6043762;23;20030;-88
2022/09/30 01:21:29;;;;;;;16.08;7.93;;;7.80;99.90;;;;;;6043966;23;20051;-90
2022/09/30 01:23:57;;;;;;;20.85;7.22;;;7.80;99.90;;;;;;6043988;23;20010;-89
2022/09/30 01:26:49;;;;;;;31.60;9.55;;;7.90;99.90;;;;;;6069213;23;20013;-88
2022/09/30 01:29:47;;;;;;;32.00;7.95;;;7.90;99.90;;;;;;6055739;23;20022;-89
2022/09/30 01:32:22;;;;;;;65.45;9.48;;;7.90;99.90;;;;;;6043806;23;20435;-87
2022/09/30 01:34:54;;;;;;;41.50;8.90;;;7.90;99.90;;;;;;6044394;23;20003;-88
2022/09/30 01:38:03;;;;;;;46.10;9.23;;;7.80;99.90;;;;;;6043991;23;20320;-89
2022/09/30 01:40:51;;;;;;;31.98;9.57;;;7.80;99.90;;;;;;6068395;23;20022;-88
2022/09/30 01:43:35;;;;;;;44.25;8.25;;;7.90;99.90;;;;;;6043508;23;20360;-90
2022/09/30 01:46:35;;;;;;;25.35;8.98;;;7.80;99.90;;;;;;6044017;23;20011;-88
2022/09/30 01:49:04;;;;;;;34.40;9.00;;;7.80;99.90;;;;;;6068054;23;19999;-89
2022/09/30 01:51:57;;;;;;;30.38;9.35;;;7.80;99.90;;;;;;6068954;23;20002;-89
2022/09/30 01:54:46;;;;;;;24.83;9.30;;;7.90;99.90;;;;;;6068597;23;20007;-88
2022/09/30 01:57:20;;;;;;;23.25;9.23;;;7.90;99.90;;;;;;6043175;23;20391;-89
2022/09/30 01:59:55;;;;;;;29.67;8.73;;;7.90;99.90;;;;;;6043129;23;20018;-88
2022/09/30 02:02:26;;;;;;;43.47;8.65;;;7.90;99.90;;;;;;6068496;23;20062;-90
2022/09/30 02:04:59;;;;;;;56.72;11.13;;;7.90;99.90;;;;;;6046523;23;20011;-88
2022/09/30 02:07:30;;;;;;;27.67;9.45;;;7.90;99.90;;;;;;6045441;23;20014;-88
2022/09/30 02:10:15;;;;;;;51.58;9.23;;;7.90;99.90;;;;;;6045435;23;20038;-88
2022/09/30 02:12:48;;;;;;;38.33;8.55;;;7.90;99.90;;;;;;6047125;23;20049;-88
2022/09/30 02:15:22;;;;;;;35.75;8.60;;;8.00;99.90;;;;;;6072299;23;20030;-88
2022/09/30 02:18:05;;;;;;;62.38;8.27;;;8.00;99.90;;;;;;6074611;23;20013;-89
2022/09/30 02:20:40;;;;;;;32.42;8.57;;;7.90;99.90;;;;;;6042423;23;20010;-88
2022/09/30 02:23:13;;;;;;;31.75;8.13;;;7.90;99.90;;;;;;6042949;23;20010;-88
2022/09/30 02:25:50;;;;;;;40.40;8.30;;;7.90;99.90;;;;;;6042837;23;20011;-88
2022/09/30 02:28:26;;;;;;;20.85;7.90;;;7.90;99.90;;;;;;6043271;23;20523;-89
2022/09/30 02:30:55;;;;;;;23.55;8.20;;;7.90;99.90;;;;;;6042767;23;20111;-88
2022/09/30 02:34:00;;;;;;;22.88;9.32;;;7.90;99.90;;;;;;6043190;23;20011;-90
2022/09/30 02:36:55;;;;;;;34.95;7.57;;;7.90;99.90;;;;;;6010056;23;20007;-91
2022/09/30 02:39:36;;;;;;;37.78;9.30;;;8.00;99.90;;;;;;6042943;23;20046;-89
2022/09/30 02:42:10;;;;;;;21.83;7.75;;;8.00;99.90;;;;;;6042656;23;20015;-89
2022/09/30 02:44:37;;;;;;;26.05;8.82;;;8.00;99.90;;;;;;6042825;23;20007;-89
2022/09/30 02:47:27;;;;;;;25.52;8.02;;;8.00;99.90;;;;;;6042462;23;20017;-89
2022/09/30 02:50:25;;;;;;;27.42;9.40;;;8.00;99.90;;;;;;6042932;23;20019;-90
2022/09/30 02:53:18;;;;;;;17.70;8.68;;;8.00;99.90;;;;;;6031159;23;20011;-89
2022/09/30 02:55:59;;;;;;;21.30;9.50;;;8.00;99.90;;;;;;6042344;23;20029;-89
2022/09/30 02:58:26;;;;;;;27.73;8.18;;;8.00;99.90;;;;;;6042568;23;20150;-89
2022/09/30 03:00:53;;;;;;;16.23;7.90;;;8.10;99.90;;;;;;6042856;23;20466;-90
2022/09/30 03:03:24;;;;;;;29.60;8.77;;;8.10;99.90;;;;;;6042557;23;20003;-89
2022/09/30 03:05:50;;;;;;;24.38;8.55;;;8.10;99.90;;;;;;6042681;23;20015;-89
2022/09/30 03:08:16;;;;;;;22.70;8.63;;;8.10;99.90;;;;;;6042684;23;20050;-89
2022/09/30 03:10:43;;;;;;;30.52;9.52;;;8.10;99.90;;;;;;6068331;23;20018;-88
2022/09/30 03:13:53;;;;;;;32.33;9.05;;;8.10;99.90;;;;;;6067767;23;20003;-90
2022/09/30 03:17:08;;;;;;;17.05;8.55;;;8.10;99.90;;;;;;6042327;23;20030;-89
2022/09/30 03:20:17;;;;;;;18.92;8.50;;;8.10;99.90;;;;;;5929033;24;20372;-90
2022/09/30 03:23:26;;;;;;;17.83;7.75;;;8.10;99.90;;;;;;5952149;24;20032;-88
2022/09/30 03:25:59;;;;;;;62.63;8.48;;;8.10;99.90;;;;;;5929068;24;20165;-89
2022/09/30 03:28:33;;;;;;;33.97;8.70;;;8.10;99.90;;;;;;5952005;24;20056;-89
2022/09/30 03:31:10;;;;;;;29.88;7.93;;;8.10;99.90;;;;;;5979931;24;20008;-89
2022/09/30 03:33:55;;;;;;;26.17;8.43;;;8.00;99.90;;;;;;5956235;24;20032;-89
2022/09/30 03:36:33;;;;;;;26.98;6.78;;;8.00;99.90;;;;;;5956756;24;20008;-90
2022/09/30 03:39:07;;;;;;;43.22;9.02;;;8.00;99.90;;;;;;5979670;24;20015;-89
2022/09/30 03:41:33;;;;;;;28.25;8.02;;;8.00;99.90;;;;;;5979744;24;20095;-88
2022/09/30 03:44:13;;;;;;;65.82;9.65;;;8.00;99.90;;;;;;5956448;24;20035;-90
2022/09/30 03:46:42;;;;;;;21.35;8.52;;;8.10;99.90;;;;;;5956291;24;20016;-90
2022/09/30 03:49:12;;;;;;;25.30;7.85;;;8.10;99.90;;;;;;5956510;24;20488;-91
2022/09/30 03:51:39;;;;;;;34.47;8.87;;;8.10;99.90;;;;;;5956792;24;20520;-90
2022/09/30 03:54:10;;;;;;;134.82;10.68;;;8.20;99.90;;;;;;5988902;23;20030;-90
2022/09/30 03:56:41;;;;;;;;;;;8.10;99.90;;;;;;6036660;23;20003;-90
2022/09/30 03:59:11;;;;;;;17.80;7.72;;;8.10;99.90;;;;;;6043788;23;19937;-89
2022/09/30 04:01:38;;;;;;;24.80;8.07;;;8.10;99.90;;;;;;6067348;23;20114;-89
2022/09/30 04:04:04;;;;;;;21.17;8.50;;;8.10;99.90;;;;;;6065976;23;20427;-89
2022/09/30 04:06:29;;;;;;;18.50;7.55;;;8.20;99.90;;;;;;6065816;23;20075;-89
2022/09/30 04:08:55;;;;;;;25.20;7.80;;;8.20;99.90;;;;;;6067227;23;20003;-90
2022/09/30 04:11:20;;;;;;;20.70;7.88;;;8.20;99.90;;;;;;6065843;23;20062;-89
2022/09/30 04:13:46;;;;;;;20.92;7.55;;;8.20;99.90;;;;;;6066066;23;20439;-89
2022/09/30 04:16:12;;;;;;;24.88;6.28;;;8.20;99.90;;;;;;6065919;23;20054;-89
2022/09/30 04:18:38;;;;;;;23.42;7.30;;;8.20;99.90;;;;;;6067244;23;20673;-89
2022/09/30 04:21:06;;;;;;;25.25;8.05;;;8.20;99.90;;;;;;6065574;23;20101;-90
2022/09/30 04:23:37;;;;;;;52.00;8.15;;;8.20;99.90;;;;;;6065665;23;20432;-88
2022/09/30 04:26:04;;;;;;;19.95;7.80;;;8.20;99.90;;;;;;6066499;23;20011;-89
2022/09/30 04:28:31;;;;;;;39.58;8.65;;;8.20;99.90;;;;;;6066389;23;20021;-89
2022/09/30 04:31:01;;;;;;;21.38;7.20;;;8.10;99.90;;;;;;6043081;23;20042;-89
2022/09/30 04:33:27;;;;;;;27.50;7.87;;;8.10;99.90;;;;;;6069168;23;20038;-90
2022/09/30 04:35:57;;;;;;;32.20;8.23;;;8.10;99.90;;;;;;6042989;23;20575;-89
2022/09/30 04:38:25;;;;;;;26.15;6.97;;;8.10;99.90;;;;;;6068814;23;19999;-89
2022/09/30 04:40:51;;;;;;;19.80;7.40;;;8.10;99.90;;;;;;6043626;23;20066;-89
2022/09/30 04:43:18;;;;;;;31.05;7.10;;;8.10;99.90;;;;;;6045160;23;20007;-89
2022/09/30 04:45:45;;;;;;;46.03;7.70;;;8.10;99.90;;;;;;6070433;23;20380;-90
2022/09/30 04:48:15;;;;;;;23.10;7.97;;;8.00;99.90;;;;;;6045122;23;20029;-89
2022/09/30 04:50:41;;;;;;;24.88;7.88;;;8.10;99.90;;;;;;6043786;23;20007;-90
2022/09/30 04:53:10;;;;;;;34.60;7.75;;;8.10;99.90;;;;;;6043773;23;20058;-90
2022/09/30 04:55:36;;;;;;;22.95;6.20;;;8.10;99.90;;;;;;6044037;23;20017;-89
2022/09/30 04:58:01;;;;;;;23.42;5.38;;;8.10;99.90;;;;;;6043711;23;20010;-89
2022/09/30 05:00:27;;;;;;;24.13;6.00;;;8.00;99.90;;;;;;6042936;23;20011;-89
2022/09/30 05:02:53;;;;;;;21.35;5.40;;;8.00;99.90;;;;;;6043535;23;20014;-87
2022/09/30 05:05:18;;;;;;;14.73;5.05;;;8.00;99.90;;;;;;6042839;23;20003;-89
2022/09/30 05:07:45;;;;;;;12.43;4.65;;;8.00;99.90;;;;;;6068308;23;20003;-88
2022/09/30 05:10:11;;;;;;;18.38;6.10;;;8.00;99.90;;;;;;6043183;23;20009;-88
2022/09/30 05:12:38;;;;;;;19.75;5.03;;;8.00;99.90;;;;;;6066952;23;20097;-89
2022/09/30 05:15:04;;;;;;;13.65;5.85;;;8.00;99.90;;;;;;6066759;23;20090;-89
2022/09/30 05:17:30;;;;;;;15.43;5.47;;;8.10;99.90;;;;;;6042045;23;20010;-87
2022/09/30 05:19:57;;;;;;;14.68;6.35;;;8.00;99.90;;;;;;6042386;23;20011;-89
2022/09/30 05:22:23;;;;;;;12.38;5.28;;;8.10;99.90;;;;;;6042884;23;20121;-89
2022/09/30 05:24:50;;;;;;;16.65;6.22;;;8.10;99.90;;;;;;6067667;23;20003;-88
2022/09/30 05:27:16;;;;;;;23.25;6.97;;;8.10;99.90;;;;;;6042062;23;20014;-89
2022/09/30 05:29:42;;;;;;;16.33;6.32;;;8.10;99.90;;;;;;6052319;23;20101;-89
2022/09/30 05:32:09;;;;;;;20.52;7.68;;;8.20;99.90;;;;;;6067581;23;20438;-89
2022/09/30 05:34:34;;;;;;;19.17;6.47;;;8.20;99.90;;;;;;6066546;23;20006;-89
2022/09/30 05:37:00;;;;;;;16.45;7.10;;;8.20;99.90;;;;;;6066897;23;20392;-88
2022/09/30 05:39:26;;;;;;;15.48;6.97;;;8.30;99.90;;;;;;6069059;23;20431;-90
2022/09/30 05:41:51;;;;;;;17.38;6.78;;;8.30;99.90;;;;;;6069207;23;20074;-90
2022/09/30 05:44:18;;;;;;;16.85;6.15;;;8.30;99.90;;;;;;6069135;23;20003;-89
2022/09/30 05:46:43;;;;;;;48.58;6.35;;;8.30;99.90;;;;;;6067849;23;20006;-90
2022/09/30 05:49:09;;;;;;;16.83;5.80;;;8.30;99.90;;;;;;6067508;23;20606;-89
2022/09/30 05:51:35;;;;;;;45.05;6.05;;;8.30;99.90;;;;;;6069355;23;20026;-90
2022/09/30 05:54:01;;;;;;;14.60;6.25;;;8.20;99.90;;;;;;6069282;23;20007;-89
2022/09/30 05:56:26;;;;;;;13.23;5.95;;;8.20;99.90;;;;;;6068412;23;20003;-90
2022/09/30 05:58:52;;;;;;;13.27;6.30;;;8.20;99.90;;;;;;6066997;23;20173;-90
2022/09/30 06:01:18;;;;;;;17.23;6.68;;;8.10;99.90;;;;;;6066160;23;20019;-87
2022/09/30 06:03:45;;;;;;;20.38;6.85;;;8.20;99.90;;;;;;6065387;23;20003;-89
2022/09/30 06:06:11;;;;;;;13.70;6.55;;;8.20;99.90;;;;;;6065585;23;20007;-89
2022/09/30 06:08:38;;;;;;;19.38;7.45;;;8.20;99.90;;;;;;6065666;23;20082;-89
2022/09/30 06:11:14;;;;;;;15.85;7.25;;;8.30;99.90;;;;;;6067052;23;20032;-89
2022/09/30 06:13:41;;;;;;;14.43;6.53;;;8.30;99.90;;;;;;6065401;23;20018;-90
2022/09/30 06:16:08;;;;;;;17.05;6.97;;;8.40;99.90;;;;;;6065924;23;20034;-88
2022/09/30 06:18:34;;;;;;;20.45;8.35;;;8.40;99.90;;;;;;6065813;23;20006;-88
2022/09/30 06:21:02;;;;;;;15.77;6.80;;;8.40;99.90;;;;;;6065611;23;20018;-89
2022/09/30 06:23:29;;;;;;;23.58;7.20;;;8.50;99.90;;;;;;6066156;23;20007;-89
2022/09/30 06:25:55;;;;;;;16.50;6.47;;;8.40;99.90;;;;;;6066122;23;20435;-89
2022/09/30 06:28:22;;;;;;;15.85;7.05;;;8.50;99.90;;;;;;6067047;23;20037;-89
2022/09/30 06:30:48;;;;;;;20.75;7.50;;;8.50;99.90;;;;;;6064923;23;20070;-89
2022/09/30 06:33:14;;;;;;;19.08;6.50;;;8.50;99.90;;;;;;6065327;23;20384;-89
2022/09/30 06:35:41;;;;;;;21.65;7.43;;;8.50;99.90;;;;;;6065715;23;20086;-89
2022/09/30 06:38:10;;;;;;;19.38;7.30;;;8.50;99.90;;;;;;6065383;23;20017;-88
2022/09/30 06:40:37;;;;;;;13.65;6.25;;;8.50;99.90;;;;;;6065488;23;20026;-88
2022/09/30 06:43:03;;;;;;;18.60;6.35;;;8.60;99.90;;;;;;6065583;23;20034;-88
2022/09/30 06:45:31;;;;;;;12.00;5.13;;;8.60;99.90;;;;;;6067292;23;20062;-89
2022/09/30 06:47:58;;;;;;;10.07;5.13;;;8.70;99.90;;;;;;6065419;23;20019;-89
2022/09/30 06:50:24;;;;;;;14.98;6.63;;;8.70;99.90;;;;;;6066714;23;20018;-88
2022/09/30 06:52:50;;;;;;;18.17;6.70;;;8.70;99.90;;;;;;6065594;23;20431;-90
2022/09/30 06:55:21;;;;;;;14.50;6.88;;;8.80;99.90;;;;;;6065183;23;20006;-89
2022/09/30 06:57:47;;;;;;;17.48;6.82;;;8.80;99.90;;;;;;6064685;23;20094;-87
2022/09/30 07:00:15;;;;;;;16.58;7.03;;;8.80;99.90;;;;;;6064883;23;20030;-90
2022/09/30 07:02:41;;;;;;;22.48;7.88;;;8.90;99.90;;;;;;6065038;23;20040;-87
2022/09/30 07:05:07;;;;;;;14.43;6.57;;;8.90;99.90;;;;;;6065080;23;20125;-90
2022/09/30 07:07:33;;;;;;;25.23;8.30;;;9.00;99.90;;;;;;6066489;23;20011;-91
2022/09/30 07:09:59;;;;;;;24.02;9.30;;;9.00;99.90;;;;;;6066713;23;20057;-88
2022/09/30 07:12:25;;;;;;;20.30;8.23;;;9.10;99.90;;;;;;6067104;23;20231;-88
2022/09/30 07:14:51;;;;;;;20.30;8.23;;;9.10;99.90;;;;;;6065899;23;20014;-87
2022/09/30 07:17:17;;;;;;;18.38;7.97;;;9.20;99.90;;;;;;6067379;23;20011;-89
2022/09/30 07:19:43;;;;;;;22.00;8.60;;;9.20;99.90;;;;;;6066268;23;20022;-91
2022/09/30 07:22:28;;;;;;;22.63;7.38;;;9.30;99.90;;;;;;6066364;23;20022;-91
2022/09/30 07:25:03;;;;;;;20.42;8.32;;;9.30;99.90;;;;;;6065865;23;20006;-91
2022/09/30 07:27:31;;;;;;;18.52;7.50;;;9.40;99.90;;;;;;6067909;23;20014;-90
2022/09/30 07:29:58;;;;;;;21.75;8.27;;;9.40;99.90;;;;;;6068099;23;20038;-91
2022/09/30 07:32:24;;;;;;;21.13;7.95;;;9.50;99.90;;;;;;6043011;23;20015;-92
2022/09/30 07:34:50;;;;;;;23.92;7.45;;;9.50;99.90;;;;;;6042594;23;20335;-93
2022/09/30 07:37:18;;;;;;;22.08;7.75;;;9.50;99.90;;;;;;6043439;23;20103;-92
2022/09/30 07:39:47;;;;;;;21.10;8.10;;;9.60;99.90;;;;;;6041712;23;20013;-90
2022/09/30 07:42:14;;;;;;;18.58;6.95;;;9.60;99.90;;;;;;6069182;23;20015;-90
2022/09/30 07:44:42;;;;;;;22.17;7.38;;;9.70;99.90;;;;;;6042866;23;20151;-90
2022/09/30 07:47:09;;;;;;;23.02;8.48;;;9.70;99.90;;;;;;6039667;23;20086;-93
2022/09/30 07:49:35;;;;;;;16.25;7.03;;;9.80;99.90;;;;;;6040904;23;20443;-92
2022/09/30 07:52:01;;;;;;;24.92;8.30;;;9.90;99.90;;;;;;6042405;23;20065;-92
2022/09/30 07:54:29;;;;;;;14.63;7.15;;;9.90;99.90;;;;;;6042423;23;20002;-91
2022/09/30 07:57:12;;;;;;;15.73;7.95;;;10.00;99.90;;;;;;5090052;28;20468;-90
2022/09/30 07:59:40;;;;;;;25.20;8.35;;;10.10;99.90;;;;;;5090351;28;20046;-91
2022/09/30 08:02:10;;;;;;;22.42;6.78;;;10.10;99.90;;;;;;5089198;28;20157;-90
2022/09/30 08:04:35;;;;;;;15.38;7.43;;;10.20;99.90;;;;;;5090372;28;20024;-92
2022/09/30 08:07:03;;;;;;;19.10;8.50;;;10.20;99.90;;;;;;5088788;28;20155;-92
2022/09/30 08:09:30;;;;;;;17.60;8.35;;;10.30;99.90;;;;;;5089259;28;20021;-90
2022/09/30 08:11:56;;;;;;;15.10;7.63;;;10.40;99.90;;;;;;5089403;28;20130;-91
2022/09/30 08:14:24;;;;;;;17.75;7.10;;;10.40;99.90;;;;;;5090103;28;20032;-91
2022/09/30 08:16:50;;;;;;;15.70;7.75;;;10.40;99.90;;;;;;5090040;28;20060;-90
2022/09/30 08:19:19;;;;;;;15.32;7.63;;;10.40;99.90;;;;;;5090748;28;20012;-91
2022/09/30 08:21:46;;;;;;;15.65;7.88;;;10.50;99.90;;;;;;5092810;28;20036;-91
2022/09/30 08:24:12;;;;;;;24.80;8.40;;;10.50;99.90;;;;;;5089356;28;20021;-91
2022/09/30 08:26:38;;;;;;;12.48;8.73;;;10.60;99.90;;;;;;5088928;28;20031;-91
2022/09/30 08:29:04;;;;;;;20.77;9.00;;;10.60;99.90;;;;;;5088327;28;20043;-90
2022/09/30 08:31:32;;;;;;;16.42;8.65;;;10.60;99.90;;;;;;5088204;28;20037;-91
2022/09/30 08:33:58;;;;;;;21.05;10.05;;;10.60;99.90;;;;;;5088241;28;20031;-90
2022/09/30 08:36:25;;;;;;;19.05;10.10;;;10.60;99.90;;;;;;5087241;28;20036;-91
2022/09/30 08:38:52;;;;;;;23.77;11.13;;;10.70;99.90;;;;;;5088189;28;20044;-92
2022/09/30 08:41:23;;;;;;;15.73;9.98;;;10.70;99.90;;;;;;5089295;28;20028;-91
2022/09/30 08:43:58;;;;;;;20.98;10.65;;;10.70;99.90;;;;;;5088048;28;20025;-90
2022/09/30 08:46:41;;;;;;;21.33;11.70;;;10.70;99.90;;;;;;5087883;28;20502;-91
2022/09/30 08:49:37;;;;;;;21.42;10.70;;;10.70;99.90;;;;;;5087412;28;20118;-93
2022/09/30 08:52:09;;;;;;;20.35;10.77;;;10.80;99.90;;;;;;5067481;28;20452;-93
2022/09/30 08:54:35;;;;;;;22.20;10.68;;;10.80;99.90;;;;;;5068798;28;20461;-89
2022/09/30 08:57:04;;;;;;;21.95;10.90;;;10.80;99.90;;;;;;5068028;28;20409;-91
2022/09/30 08:59:44;;;;;;;20.20;9.95;;;10.90;99.90;;;;;;5067135;28;20182;-89
2022/09/30 09:02:26;;;;;;;18.33;10.57;;;10.90;99.90;;;;;;5067170;28;20029;-94
2022/09/30 09:04:56;;;;;;;20.70;10.40;;;10.90;99.90;;;;;;5067455;28;20028;-91
2022/09/30 09:08:05;;;;;;;18.45;10.43;;;10.90;99.90;;;;;;5060935;28;20378;-91
2022/09/30 09:11:08;;;;;;;19.77;10.52;;;11.00;99.90;;;;;;5054298;28;20060;-91
2022/09/30 09:13:52;;;;;;;19.08;9.25;;;11.00;99.90;;;;;;5054342;28;20029;-92
2022/09/30 09:16:27;;;;;;;19.70;10.18;;;11.00;99.90;;;;;;5053939;28;20135;-89
2022/09/30 09:18:55;;;;;;;19.00;9.55;;;11.00;99.90;;;;;;5054976;28;20037;-90
2022/09/30 09:21:30;;;;;;;21.63;10.98;;;11.10;99.90;;;;;;5053614;28;20067;-90
2022/09/30 09:24:00;;;;;;;16.98;10.52;;;11.10;99.90;;;;;;5055020;28;20044;-89
2022/09/30 09:26:30;;;;;;;21.05;12.35;;;11.10;99.90;;;;;;5055102;28;20099;-91
2022/09/30 09:29:07;;;;;;;19.75;12.15;;;11.20;99.90;;;;;;5053583;28;20025;-90
2022/09/30 09:31:33;;;;;;;23.90;12.02;;;11.20;99.90;;;;;;5054293;28;20121;-89
2022/09/30 09:34:07;;;;;;;19.73;11.38;;;11.20;99.90;;;;;;5052843;28;20053;-91
2022/09/30 09:36:58;;;;;;;23.48;12.30;;;11.20;99.90;;;;;;5054228;28;20129;-89
2022/09/30 09:39:33;;;;;;;21.73;10.73;;;11.10;99.90;;;;;;5054878;28;20025;-90
2022/09/30 09:42:12;;;;;;;25.63;12.30;;;11.10;99.90;;;;;;5053754;28;20045;-90
2022/09/30 09:44:48;;;;;;;23.20;12.00;;;11.10;99.90;;;;;;5053297;28;20064;-90
2022/09/30 09:47:14;;;;;;;20.17;12.13;;;11.10;99.90;;;;;;5052762;28;20052;-91
2022/09/30 09:49:57;;;;;;;20.00;11.07;;;11.10;99.90;;;;;;5054464;28;20025;-91
2022/09/30 09:52:53;;;;;;;21.10;12.63;;;11.10;99.90;;;;;;5053460;28;20070;-91
2022/09/30 09:55:21;;;;;;;22.55;13.07;;;11.10;99.90;;;;;;5054191;28;20131;-92
2022/09/30 09:57:48;;;;;;;19.40;12.15;;;11.10;99.90;;;;;;5044217;28;20017;-90
2022/09/30 10:03:15;;;;;;;20.63;11.85;;;11.10;99.90;;;;;;5054940;28;20039;-90
2022/09/30 10:05:41;;;;;;;25.80;14.38;;;11.10;99.90;;;;;;5059511;28;20040;-90
2022/09/30 10:08:15;;;;;;;21.92;12.77;;;11.10;99.90;;;;;;5060919;28;20029;-89
2022/09/30 10:10:45;;;;;;;22.77;13.35;;;11.10;99.90;;;;;;5054089;28;20032;-90
2022/09/30 10:13:31;;;;;;;23.10;15.00;;;11.10;99.90;;;;;;5054735;28;20037;-93
2022/09/30 10:15:59;;;;;;;24.23;14.75;;;11.10;99.90;;;;;;5055392;28;20045;-92
2022/09/30 10:18:26;;;;;;;21.23;13.65;;;11.10;99.90;;;;;;5054053;28;20025;-91
2022/09/30 10:20:59;;;;;;;27.27;14.43;;;11.20;99.90;;;;;;5052372;28;20025;-91
2022/09/30 10:23:37;;;;;;;24.08;15.30;;;11.30;99.90;;;;;;5053000;28;20025;-91
2022/09/30 10:26:16;;;;;;;26.70;14.68;;;11.40;99.90;;;;;;5053908;28;20029;-91
2022/09/30 10:28:48;;;;;;;24.23;13.43;;;11.40;99.90;;;;;;5052840;28;20029;-92
2022/09/30 10:31:17;;;;;;;24.55;12.55;;;11.50;99.90;;;;;;5053024;28;20036;-92
2022/09/30 10:33:47;;;;;;;20.83;13.88;;;11.50;99.90;;;;;;5052942;28;20102;-91
2022/09/30 10:36:12;;;;;;;26.70;12.88;;;11.60;99.90;;;;;;5053695;28;20032;-91
2022/09/30 10:38:47;;;;;;;20.85;13.48;;;11.60;99.90;;;;;;5053662;28;20029;-91
2022/09/30 10:41:22;;;;;;;24.27;14.50;;;11.70;99.90;;;;;;5053931;28;20389;-90
2022/09/30 10:43:51;;;;;;;26.58;11.85;;;11.70;99.90;;;;;;5052977;28;20029;-90
2022/09/30 10:46:35;;;;;;;20.33;13.65;;;11.70;99.90;;;;;;5052637;28;20112;-90
2022/09/30 10:49:22;;;;;;;21.85;13.07;;;11.80;99.90;;;;;;5053658;28;20048;-90
2022/09/30 10:51:48;;;;;;;22.58;12.48;;;11.80;99.90;;;;;;5052455;28;20061;-92
2022/09/30 10:54:52;;;;;;;18.90;11.13;;;11.90;99.90;;;;;;5052841;28;20061;-91
2022/09/30 10:57:30;;;;;;;19.27;12.45;;;12.00;99.90;;;;;;5051357;28;20517;-94
2022/09/30 11:00:05;;;;;;;19.63;11.57;;;12.10;99.90;;;;;;5049734;28;20025;-91
2022/09/30 11:02:43;;;;;;;18.90;11.63;;;12.10;99.90;;;;;;5051202;28;20067;-91
2022/09/30 11:05:18;;;;;;;20.63;12.30;;;12.20;99.90;;;;;;5052587;28;20048;-92
2022/09/30 11:08:01;;;;;;;15.10;10.02;;;12.20;99.90;;;;;;5052529;28;20360;-91
2022/09/30 11:10:39;;;;;;;19.13;11.57;;;12.30;99.90;;;;;;5050896;28;20106;-92
2022/09/30 11:13:18;;;;;;;16.98;10.23;;;12.20;99.90;;;;;;5052736;28;20068;-91
2022/09/30 11:15:54;;;;;;;17.20;10.07;;;12.30;99.90;;;;;;5053561;28;20577;-91
2022/09/30 11:18:33;;;;;;;13.30;8.10;;;12.30;99.90;;;;;;5042455;28;20158;-90
2022/09/30 11:21:10;;;;;;;17.23;10.23;;;12.30;99.90;;;;;;5055812;28;20100;-91
2022/09/30 11:23:45;;;;;;;16.20;9.07;;;12.40;99.90;;;;;;5053917;28;20021;-93
2022/09/30 11:26:26;;;;;;;12.73;7.55;;;12.40;99.90;;;;;;5051908;28;20039;-90
2022/09/30 11:29:23;;;;;;;16.27;9.40;;;12.40;99.90;;;;;;5038212;28;20160;-91
2022/09/30 11:32:16;;;;;;;16.50;7.65;;;12.50;99.90;;;;;;5051228;28;20054;-92
2022/09/30 11:35:02;;;;;;;16.30;9.68;;;12.50;99.90;;;;;;5040260;28;20017;-91
2022/09/30 11:37:46;;;;;;;15.25;8.65;;;12.40;99.90;;;;;;5051354;28;20147;-91
2022/09/30 11:40:21;;;;;;;13.70;8.02;;;12.50;99.90;;;;;;5050914;28;20017;-93
2022/09/30 11:42:52;;;;;;;14.48;8.60;;;12.40;99.90;;;;;;5052382;28;20044;-91
2022/09/30 11:45:26;;;;;;;10.65;7.18;;;12.40;99.90;;;;;;5052656;28;20033;-91
2022/09/30 11:48:28;;;;;;;16.27;8.48;;;12.40;99.90;;;;;;5051542;28;20017;-91
2022/09/30 11:51:12;;;;;;;15.45;8.35;;;12.40;99.90;;;;;;5048416;28;20069;-92
2022/09/30 11:53:57;;;;;;;13.70;8.27;;;12.30;99.90;;;;;;5048965;28;20758;-90
2022/09/30 11:56:43;;;;;;;13.75;7.97;;;12.30;99.90;;;;;;5048493;28;20065;-91
2022/09/30 11:59:29;;;;;;;10.80;6.80;;;12.30;99.90;;;;;;5050716;28;20028;-93
2022/09/30 12:02:00;;;;;;;11.52;6.82;;;12.30;99.90;;;;;;5051473;28;20061;-91
2022/09/30 12:04:38;;;;;;;9.57;5.68;;;12.40;99.90;;;;;;5052154;28;20033;-92
2022/09/30 12:07:16;;;;;;;8.30;5.82;;;12.40;99.90;;;;;;5051312;28;20056;-92
2022/09/30 12:09:57;;;;;;;10.90;5.22;;;12.30;99.90;;;;;;5050942;28;20024;-92
2022/09/30 12:12:23;;;;;;;6.07;2.88;;;12.30;99.90;;;;;;5050926;28;20120;-92
2022/09/30 12:15:01;;;;;;;8.93;5.07;;;12.30;99.90;;;;;;5052175;28;20116;-92
2022/09/30 12:17:58;;;;;;;9.68;4.53;;;12.30;99.90;;;;;;5051003;28;20033;-93
2022/09/30 12:20:36;;;;;;;7.40;3.80;;;12.30;99.90;;;;;;5053681;28;20025;-93
2022/09/30 12:23:13;;;;;;;7.32;4.45;;;12.30;99.90;;;;;;5057189;28;20032;-93
2022/09/30 12:25:50;;;;;;;8.77;4.80;;;12.20;99.90;;;;;;5056175;28;20059;-94
2022/09/30 12:32:11;;;;;;;2.58;1.90;;;12.10;99.90;;;;;;5056992;28;20043;-94
2022/09/30 12:35:09;;;;;;;5.78;2.90;;;12.10;99.90;;;;;;5059571;28;20043;-93
2022/09/30 12:38:02;;;;;;;7.95;3.20;;;12.10;99.90;;;;;;5059487;28;20052;-95
2022/09/30 12:40:33;;;;;;;8.07;3.22;;;12.10;99.90;;;;;;5057960;28;20032;-95
2022/09/30 12:43:05;;;;;;;8.63;3.50;;;12.00;99.90;;;;;;5061126;28;20024;-95
2022/09/30 12:45:49;;;;;;;12.77;6.90;;;12.00;99.90;;;;;;5058068;28;20035;-95
2022/09/30 12:48:19;;;;;;;7.00;3.50;;;12.00;99.90;;;;;;5061138;28;20056;-95
2022/09/30 12:50:49;;;;;;;9.50;6.05;;;12.00;99.90;;;;;;5062768;28;20021;-95
2022/09/30 12:53:20;;;;;;;5.35;2.97;;;11.90;99.90;;;;;;5065716;28;20025;-93
2022/09/30 12:55:46;;;;;;;7.43;4.32;;;11.90;99.90;;;;;;5062551;28;20087;-95
2022/09/30 12:58:25;;;;;;;4.07;2.72;;;11.90;99.90;;;;;;5063765;28;20025;-95
2022/09/30 13:01:05;;;;;;;6.43;2.70;;;11.90;99.90;;;;;;5063354;28;20036;-95
2022/09/30 13:04:00;;;;;;;4.75;2.47;;;11.80;99.90;;;;;;5063597;28;20029;-93
2022/09/30 13:06:47;;;;;;;4.82;2.50;;;11.80;99.90;;;;;;5051614;28;20061;-94
2022/09/30 13:09:15;;;;;;;4.32;2.50;;;11.80;99.90;;;;;;5033176;28;20054;-94
2022/09/30 13:11:47;;;;;;;4.47;2.30;;;11.80;99.90;;;;;;5054296;28;20117;-94
2022/09/30 13:14:15;;;;;;;2.35;1.77;;;11.80;99.90;;;;;;5051341;28;20030;-94
2022/09/30 13:17:16;;;;;;;3.78;2.40;;;11.70;99.90;;;;;;5039241;28;20045;-94
2022/09/30 13:19:48;;;;;;;4.93;2.20;;;11.70;99.90;;;;;;5015413;28;20087;-92
2022/09/30 13:22:20;;;;;;;2.70;1.90;;;11.70;99.90;;;;;;5050412;28;20071;-93